Atlantic Beach, New York
Current Conditions -  °F | °C
As of 12:51 AM on Monday 20 Oct 2014 (Local Time) from KJFK Reporting Station
Overcast Overcast  
Wind Chill: 40°   Ceiling: 23000
Heat Index: 44°   Visibility: 10mi
Dew Point: 27°   Wind: 8mph
Humidity: 51%   Direction: 330°NNW
Pressure: 30.07"   Gusts: NA
Location:  40.59°N, 73.73°W
Report Text: KJFK 200451Z 33007KT 10SM OVC230 07/M03 A3007 RMK AO2 SLP184 T00671028 401440067 $
Loading
Personal Weather Stations






























Interactive Weather Map New forecast layout! Learn more

10-Day Weather Forecast

Advertisements
Track Severe Weather on mobile